createdAt,value
2023-03-20T00:02:03.629Z,11.64
2023-03-20T00:04:49.703Z,11.56
2023-03-20T00:07:35.881Z,11.43
2023-03-20T00:10:21.837Z,11.60
2023-03-20T00:13:07.624Z,11.71
2023-03-20T00:15:53.745Z,11.56
2023-03-20T00:18:39.855Z,11.63
2023-03-20T00:21:25.722Z,11.73
2023-03-20T00:24:11.781Z,11.77
2023-03-20T00:26:57.686Z,11.94
2023-03-20T00:29:43.624Z,11.84
2023-03-20T00:32:29.471Z,11.89
2023-03-20T00:35:15.247Z,12.00
2023-03-20T00:38:01.232Z,12.00
2023-03-20T00:40:47.132Z,12.07
2023-03-20T00:43:33.104Z,11.90
2023-03-20T00:46:19.115Z,11.83
2023-03-20T00:49:04.902Z,11.75
2023-03-20T00:51:50.789Z,11.75
2023-03-20T00:54:36.665Z,11.58
2023-03-20T00:57:22.582Z,11.59
2023-03-20T01:00:08.488Z,11.60
2023-03-20T01:02:54.297Z,11.47
2023-03-20T01:05:40.452Z,11.56
2023-03-20T01:08:26.520Z,11.62
2023-03-20T01:11:12.542Z,11.61
2023-03-20T01:13:58.427Z,11.46
2023-03-20T01:16:44.185Z,11.37
2023-03-20T01:19:30.029Z,11.56
2023-03-20T01:22:15.915Z,11.30
2023-03-20T01:25:01.724Z,11.27
2023-03-20T01:27:47.490Z,11.37
2023-03-20T01:30:33.429Z,11.38
2023-03-20T01:33:19.209Z,11.46
2023-03-20T01:36:05.348Z,11.54
2023-03-20T01:38:51.250Z,11.59
2023-03-20T01:41:37.213Z,11.66
2023-03-20T01:44:23.037Z,11.69
2023-03-20T01:47:08.832Z,11.33
2023-03-20T01:49:54.772Z,11.60
2023-03-20T01:52:40.680Z,11.12
2023-03-20T01:55:26.607Z,11.44
2023-03-20T01:58:12.441Z,11.41
2023-03-20T02:00:58.389Z,11.17
2023-03-20T02:03:44.321Z,10.84
2023-03-20T02:06:30.246Z,10.53
2023-03-20T02:09:16.080Z,10.44
2023-03-20T02:12:01.906Z,10.47
2023-03-20T02:14:47.611Z,10.81
2023-03-20T02:17:33.643Z,10.45
2023-03-20T02:20:19.671Z,10.42
2023-03-20T02:23:05.643Z,10.30
2023-03-20T02:25:51.564Z,9.95
2023-03-20T02:28:37.526Z,9.77
2023-03-20T02:31:23.431Z,9.94
2023-03-20T02:34:09.562Z,9.80
2023-03-20T02:36:55.465Z,9.85
2023-03-20T02:39:41.609Z,9.87
2023-03-20T02:42:27.469Z,9.69
2023-03-20T02:45:13.312Z,10.03
2023-03-20T02:47:59.198Z,10.28
2023-03-20T02:50:45.131Z,10.50
2023-03-20T02:53:30.987Z,10.54
2023-03-20T02:56:16.916Z,10.74
2023-03-20T02:59:02.709Z,10.98
2023-03-20T03:01:48.686Z,10.96
2023-03-20T03:04:34.544Z,11.03
2023-03-20T03:07:20.424Z,11.07
2023-03-20T03:10:06.673Z,11.29
2023-03-20T03:12:52.577Z,11.36
2023-03-20T03:15:38.731Z,11.29
2023-03-20T03:18:24.859Z,11.10
2023-03-20T03:21:10.670Z,11.31
2023-03-20T03:23:56.606Z,11.28
2023-03-20T03:26:42.553Z,11.41
2023-03-20T03:29:28.393Z,11.47
2023-03-20T03:32:14.296Z,11.53
2023-03-20T03:35:00.113Z,11.50
2023-03-20T03:37:45.977Z,11.59
2023-03-20T03:40:31.919Z,11.62
2023-03-20T03:43:17.758Z,11.64
2023-03-20T03:46:03.628Z,11.66
2023-03-20T03:48:49.380Z,11.64
2023-03-20T03:51:35.219Z,11.79
2023-03-20T03:54:21.145Z,11.89
2023-03-20T03:57:07.134Z,11.96
2023-03-20T03:59:53.020Z,11.86
2023-03-20T04:02:38.820Z,11.82
2023-03-20T04:05:24.688Z,12.00
2023-03-20T04:08:12.481Z,11.76
2023-03-20T04:10:58.445Z,11.26
2023-03-20T04:13:44.179Z,10.68
2023-03-20T04:16:30.143Z,10.54
2023-03-20T04:19:16.009Z,10.88
2023-03-20T04:22:01.994Z,11.10
2023-03-20T04:24:47.929Z,11.20
2023-03-20T04:27:33.785Z,10.75
2023-03-20T04:30:19.755Z,9.40
2023-03-20T04:33:05.638Z,8.91
2023-03-20T04:35:51.579Z,8.43
2023-03-20T04:38:37.470Z,7.99
2023-03-20T04:41:23.300Z,7.96
2023-03-20T04:44:09.310Z,7.73
2023-03-20T04:46:55.267Z,7.56
2023-03-20T04:49:41.206Z,7.68
2023-03-20T04:52:26.996Z,7.68
2023-03-20T04:55:12.900Z,7.59
2023-03-20T04:57:58.729Z,7.61
2023-03-20T05:00:44.596Z,7.76
2023-03-20T05:03:30.345Z,7.89
2023-03-20T05:06:16.377Z,7.59
2023-03-20T05:09:02.318Z,7.17
2023-03-20T05:11:48.195Z,7.57
2023-03-20T05:14:34.226Z,7.32
2023-03-20T05:17:20.093Z,7.13
2023-03-20T05:20:05.968Z,6.72
2023-03-20T05:22:51.983Z,6.44
2023-03-20T05:25:37.926Z,6.98
2023-03-20T05:28:24.332Z,6.85
2023-03-20T05:31:10.296Z,5.88
2023-03-20T05:33:56.006Z,5.74
2023-03-20T05:36:41.773Z,5.89
2023-03-20T05:39:27.529Z,6.11
2023-03-20T05:42:13.292Z,6.05
2023-03-20T05:44:59.216Z,5.47
2023-03-20T05:47:44.901Z,5.67
2023-03-20T05:50:30.725Z,6.39
2023-03-20T05:53:16.479Z,6.23
2023-03-20T05:56:02.503Z,5.48
2023-03-20T05:58:48.506Z,5.64
2023-03-20T06:01:34.330Z,5.90
2023-03-20T06:04:20.202Z,6.41
2023-03-20T06:07:06.563Z,6.85
2023-03-20T06:09:52.361Z,7.42
2023-03-20T06:12:38.325Z,6.81
2023-03-20T06:15:24.218Z,6.26
2023-03-20T06:18:10.069Z,6.11
2023-03-20T06:20:56.028Z,6.64
2023-03-20T06:23:41.913Z,6.41
2023-03-20T06:26:27.649Z,6.28
2023-03-20T06:29:13.438Z,6.56
2023-03-20T06:31:59.254Z,7.02
2023-03-20T06:34:45.343Z,7.05
2023-03-20T06:37:31.055Z,7.27
2023-03-20T06:40:16.994Z,6.98
2023-03-20T06:43:02.785Z,6.30
2023-03-20T06:45:48.620Z,6.20
2023-03-20T06:48:34.489Z,7.09
2023-03-20T06:51:20.371Z,7.25
2023-03-20T06:54:06.260Z,6.39
2023-03-20T06:56:52.202Z,6.86
2023-03-20T06:59:37.984Z,6.59
2023-03-20T07:02:23.991Z,6.83
2023-03-20T07:05:09.901Z,6.26
2023-03-20T07:07:56.002Z,6.12
2023-03-20T07:10:41.939Z,6.36
2023-03-20T07:13:27.771Z,6.15
2023-03-20T07:16:13.678Z,5.90
2023-03-20T07:18:59.662Z,6.16
2023-03-20T07:21:45.458Z,5.84
2023-03-20T07:24:31.361Z,5.67
2023-03-20T07:27:17.049Z,5.78
2023-03-20T07:30:02.955Z,5.84
2023-03-20T07:32:48.904Z,5.32
2023-03-20T07:35:34.937Z,5.75
2023-03-20T07:38:21.369Z,5.76
2023-03-20T07:41:07.215Z,5.47
2023-03-20T07:43:53.101Z,5.45
2023-03-20T07:46:39.251Z,5.88
2023-03-20T07:49:25.063Z,6.32
2023-03-20T07:52:11.136Z,6.43
2023-03-20T07:54:57.164Z,6.82
2023-03-20T07:57:43.042Z,7.18
2023-03-20T08:00:29.194Z,6.83
2023-03-20T08:03:15.397Z,6.57
2023-03-20T08:06:01.483Z,6.68
2023-03-20T08:08:47.297Z,6.20
2023-03-20T08:11:34.760Z,6.33
2023-03-20T08:14:20.908Z,6.18
2023-03-20T08:17:14.891Z,6.05
2023-03-20T08:20:02.550Z,6.10
2023-03-20T08:22:48.509Z,6.60
2023-03-20T08:25:34.637Z,6.39
2023-03-20T08:28:20.804Z,6.76
2023-03-20T08:31:06.798Z,6.51
2023-03-20T08:33:52.514Z,6.47
2023-03-20T08:36:38.271Z,6.46
2023-03-20T08:39:24.123Z,5.99
2023-03-20T08:42:09.855Z,6.55
2023-03-20T08:44:55.774Z,6.49
2023-03-20T08:47:41.646Z,6.92
2023-03-20T08:50:27.531Z,6.98
2023-03-20T08:53:13.328Z,7.10
2023-03-20T08:55:59.291Z,7.10
2023-03-20T08:58:45.282Z,6.99
2023-03-20T09:01:47.998Z,7.21
2023-03-20T09:04:35.122Z,7.46
2023-03-20T09:07:21.179Z,7.15
2023-03-20T09:10:07.000Z,7.29
2023-03-20T09:12:52.905Z,7.02
2023-03-20T09:15:39.205Z,7.03
2023-03-20T09:18:25.063Z,7.36
2023-03-20T09:21:10.946Z,7.61
2023-03-20T09:23:56.887Z,7.52
2023-03-20T09:26:42.734Z,7.20
2023-03-20T09:29:28.651Z,7.30
2023-03-20T09:32:14.583Z,6.79
2023-03-20T09:35:00.617Z,7.59
2023-03-20T09:37:46.471Z,7.24
2023-03-20T09:40:32.282Z,7.91
2023-03-20T09:43:18.044Z,8.62
2023-03-20T09:46:04.066Z,8.65
2023-03-20T09:48:50.632Z,8.33
2023-03-20T09:51:37.829Z,7.87
2023-03-20T09:54:23.681Z,8.11
2023-03-20T09:57:09.524Z,8.63
2023-03-20T09:59:55.468Z,8.68
2023-03-20T10:02:41.401Z,8.45
2023-03-20T10:05:27.334Z,8.58
2023-03-20T10:08:16.114Z,8.47
2023-03-20T10:11:02.064Z,9.63
2023-03-20T10:13:47.916Z,10.13
2023-03-20T10:16:33.918Z,10.69
2023-03-20T10:19:19.767Z,9.16
2023-03-20T10:22:05.516Z,8.74
2023-03-20T10:24:51.255Z,8.43
2023-03-20T10:27:37.100Z,9.30
2023-03-20T10:30:23.127Z,9.18
2023-03-20T10:33:09.123Z,9.13
2023-03-20T10:35:55.149Z,9.22
2023-03-20T10:38:40.963Z,9.53
2023-03-20T10:41:27.040Z,10.16
2023-03-20T10:44:12.916Z,10.03
2023-03-20T10:46:58.810Z,10.17
2023-03-20T10:49:44.735Z,9.95
2023-03-20T10:52:30.655Z,8.75
2023-03-20T10:55:16.933Z,8.91
2023-03-20T10:58:02.863Z,8.43
2023-03-20T11:00:48.654Z,8.73
2023-03-20T11:03:34.771Z,8.37
2023-03-20T11:06:20.656Z,9.06
2023-03-20T11:09:06.579Z,8.66
2023-03-20T11:11:52.593Z,9.25
2023-03-20T11:14:38.473Z,9.56
2023-03-20T11:17:24.293Z,10.37
2023-03-20T11:20:10.412Z,10.73
2023-03-20T11:22:56.341Z,10.32
2023-03-20T11:25:42.407Z,9.90
2023-03-20T11:28:28.232Z,9.96
2023-03-20T11:31:14.186Z,9.87
2023-03-20T11:34:00.192Z,10.35
2023-03-20T11:36:48.961Z,9.84
2023-03-20T11:39:39.062Z,9.45
2023-03-20T11:42:24.867Z,9.83
2023-03-20T11:45:10.865Z,10.95
2023-03-20T11:47:56.725Z,10.26
2023-03-20T11:50:42.615Z,11.11
2023-03-20T11:53:28.466Z,10.62
2023-03-20T11:56:14.291Z,10.87
2023-03-20T11:59:00.276Z,10.93
2023-03-20T12:01:46.173Z,10.30
2023-03-20T12:04:32.026Z,11.08
2023-03-20T12:07:18.011Z,10.35
2023-03-20T12:10:03.826Z,9.96
2023-03-20T12:12:49.853Z,9.79
2023-03-20T12:15:35.775Z,10.26
2023-03-20T12:18:21.419Z,10.23
2023-03-20T12:21:07.256Z,10.39
2023-03-20T12:23:53.153Z,10.70
2023-03-20T12:26:39.056Z,10.76
2023-03-20T12:29:25.022Z,10.70
2023-03-20T12:32:10.881Z,10.06
2023-03-20T12:34:56.974Z,10.32
2023-03-20T12:37:43.453Z,10.68
2023-03-20T12:40:29.342Z,11.25
2023-03-20T12:43:15.346Z,12.11
2023-03-20T12:46:01.185Z,13.02
2023-03-20T12:48:46.996Z,13.25
2023-03-20T12:51:33.000Z,13.87
2023-03-20T12:54:18.757Z,12.82
2023-03-20T12:57:04.710Z,11.80
2023-03-20T12:59:50.673Z,11.74
2023-03-20T13:02:36.652Z,11.26
2023-03-20T13:05:22.901Z,12.16
2023-03-20T13:08:08.748Z,10.87
2023-03-20T13:10:54.710Z,10.58
2023-03-20T13:13:40.623Z,11.10
2023-03-20T13:16:26.545Z,10.69
2023-03-20T13:19:12.577Z,10.92
2023-03-20T13:21:58.487Z,11.17
2023-03-20T13:24:44.379Z,11.33
2023-03-20T13:27:30.426Z,10.99
2023-03-20T13:30:16.295Z,11.62
2023-03-20T13:33:02.369Z,12.23
2023-03-20T13:35:48.377Z,12.11
2023-03-20T13:38:34.256Z,11.92
2023-03-20T13:41:20.188Z,11.88
2023-03-20T13:44:06.101Z,11.25
2023-03-20T13:46:52.085Z,11.33
2023-03-20T13:49:38.038Z,10.87
2023-03-20T13:52:23.969Z,11.47
2023-03-20T13:55:09.906Z,11.26
2023-03-20T13:57:55.878Z,11.88
2023-03-20T14:00:41.793Z,12.52
2023-03-20T14:03:27.804Z,12.66
2023-03-20T14:06:13.674Z,13.11
2023-03-20T14:08:59.547Z,12.76
2023-03-20T14:11:45.496Z,11.94
2023-03-20T14:14:31.438Z,12.48
2023-03-20T14:17:17.343Z,12.72
2023-03-20T14:20:03.299Z,12.48
2023-03-20T14:22:49.205Z,12.66
2023-03-20T14:25:35.244Z,12.52
2023-03-20T14:28:21.112Z,13.28
2023-03-20T14:31:08.097Z,13.68
2023-03-20T14:33:54.125Z,13.45
2023-03-20T14:36:39.927Z,14.06
2023-03-20T14:39:25.855Z,14.53
2023-03-20T14:42:11.893Z,14.37
2023-03-20T14:44:57.724Z,14.72
2023-03-20T14:47:43.638Z,15.08
2023-03-20T14:50:29.530Z,14.09
2023-03-20T14:53:15.339Z,14.84
2023-03-20T14:56:01.407Z,15.18
2023-03-20T14:58:47.243Z,14.89
2023-03-20T15:01:33.232Z,15.00
2023-03-20T15:04:19.211Z,15.54
2023-03-20T15:07:05.022Z,15.89
2023-03-20T15:09:50.866Z,14.43
2023-03-20T15:12:36.681Z,13.76
2023-03-20T15:15:22.740Z,12.06
2023-03-20T15:18:08.675Z,11.92
2023-03-20T15:20:54.884Z,12.10
2023-03-20T15:23:40.729Z,12.08
2023-03-20T15:26:26.747Z,11.39
2023-03-20T15:29:12.644Z,11.15
2023-03-20T15:32:12.838Z,11.37
2023-03-20T15:35:00.067Z,11.56
2023-03-20T15:37:46.035Z,11.31
2023-03-20T15:40:47.353Z,11.35
2023-03-20T15:43:35.914Z,11.62
2023-03-20T15:46:21.817Z,11.71
2023-03-20T15:49:07.718Z,11.73
2023-03-20T15:51:53.511Z,12.14
2023-03-20T15:54:39.534Z,12.29
2023-03-20T15:57:25.339Z,12.16
2023-03-20T16:00:11.216Z,12.13
2023-03-20T16:02:59.329Z,11.85
2023-03-20T16:05:45.198Z,12.46
2023-03-20T16:08:31.006Z,12.30
2023-03-20T16:11:16.968Z,12.01
2023-03-20T16:14:02.680Z,12.12
2023-03-20T16:16:48.594Z,12.46
2023-03-20T16:19:34.466Z,12.35
2023-03-20T16:22:20.415Z,12.11
2023-03-20T16:25:06.360Z,12.13
2023-03-20T16:27:52.274Z,12.74
2023-03-20T16:30:38.605Z,12.88
2023-03-20T16:33:24.720Z,12.37
2023-03-20T16:36:10.705Z,12.39
2023-03-20T16:38:56.838Z,12.70
2023-03-20T16:41:42.843Z,13.27
2023-03-20T16:44:28.686Z,12.84
2023-03-20T16:47:14.640Z,13.34
2023-03-20T16:50:00.517Z,13.45
2023-03-20T16:52:46.503Z,13.64
2023-03-20T16:55:32.484Z,13.96
2023-03-20T16:58:18.360Z,13.37
2023-03-20T17:01:04.504Z,13.09
2023-03-20T17:03:50.501Z,13.84
2023-03-20T17:06:36.682Z,14.34
2023-03-20T17:09:22.583Z,14.57
2023-03-20T17:12:08.337Z,14.77
2023-03-20T17:14:54.200Z,14.97
2023-03-20T17:17:40.072Z,14.62
2023-03-20T17:20:25.808Z,14.66
2023-03-20T17:23:12.665Z,15.28
2023-03-20T17:25:58.475Z,14.55
2023-03-20T17:28:44.401Z,14.19
2023-03-20T17:31:30.249Z,14.08
2023-03-20T17:34:16.043Z,13.36
2023-03-20T17:37:01.927Z,13.47
2023-03-20T17:39:47.919Z,14.48
2023-03-20T17:42:33.659Z,14.96
2023-03-20T17:45:20.906Z,14.40
2023-03-20T17:48:07.507Z,13.10
2023-03-20T17:50:53.330Z,12.12
2023-03-20T17:53:39.269Z,11.24
2023-03-20T17:56:25.503Z,10.47
2023-03-20T17:59:12.539Z,10.06
2023-03-20T18:01:58.771Z,9.91
2023-03-20T18:04:44.909Z,9.63
2023-03-20T18:07:30.823Z,9.47
2023-03-20T18:10:18.923Z,9.73
2023-03-20T18:13:05.008Z,10.05
2023-03-20T18:15:50.965Z,10.14
2023-03-20T18:18:36.875Z,9.46
2023-03-20T18:21:22.642Z,9.18
2023-03-20T18:24:08.522Z,9.22
2023-03-20T18:26:54.341Z,9.23
2023-03-20T18:29:40.226Z,9.06
2023-03-20T18:32:26.251Z,8.53
2023-03-20T18:35:12.033Z,8.71
2023-03-20T18:37:58.000Z,8.39
2023-03-20T18:40:44.066Z,7.87
2023-03-20T18:43:29.999Z,8.41
2023-03-20T18:46:16.010Z,8.99
2023-03-20T18:49:01.938Z,8.87
2023-03-20T18:51:47.840Z,8.94
2023-03-20T18:54:33.663Z,9.16
2023-03-20T18:57:19.466Z,9.21
2023-03-20T19:00:05.460Z,9.19
2023-03-20T19:02:51.555Z,9.52
2023-03-20T19:05:37.277Z,10.02
2023-03-20T19:08:23.210Z,10.51
2023-03-20T19:11:08.982Z,9.94
2023-03-20T19:13:54.839Z,9.29
2023-03-20T19:16:40.849Z,8.90
2023-03-20T19:19:27.004Z,8.43
2023-03-20T19:22:26.577Z,8.01
2023-03-20T19:25:17.036Z,8.17
2023-03-20T19:28:02.934Z,8.60
2023-03-20T19:30:48.748Z,9.00
2023-03-20T19:33:34.810Z,9.40
2023-03-20T19:36:20.602Z,8.97
2023-03-20T19:39:06.632Z,8.86
2023-03-20T19:41:52.612Z,8.70
2023-03-20T19:44:38.807Z,8.68
2023-03-20T19:47:24.834Z,8.00
2023-03-20T19:50:10.640Z,7.62
2023-03-20T19:52:56.554Z,7.43
2023-03-20T19:55:42.476Z,7.23
2023-03-20T19:58:28.375Z,7.17
2023-03-20T20:01:15.587Z,7.01
2023-03-20T20:04:02.087Z,7.23
2023-03-20T20:06:47.892Z,7.71
2023-03-20T20:09:33.823Z,7.86
2023-03-20T20:12:19.658Z,8.06
2023-03-20T20:15:05.606Z,8.08
2023-03-20T20:17:51.642Z,7.76
2023-03-20T20:21:10.629Z,7.45
2023-03-20T20:23:43.326Z,6.80
2023-03-20T20:26:31.375Z,6.61
2023-03-20T20:29:20.846Z,6.99
2023-03-20T20:32:06.780Z,7.45
2023-03-20T20:38:33.654Z,6.77
2023-03-20T20:41:05.194Z,7.35
2023-03-20T20:44:18.506Z,7.43
2023-03-20T20:46:56.847Z,7.96
2023-03-20T20:49:42.747Z,8.18
2023-03-20T20:52:28.767Z,7.91
2023-03-20T20:55:22.693Z,7.82
2023-03-20T20:58:09.586Z,8.30
2023-03-20T21:00:55.669Z,8.45
2023-03-20T21:03:41.620Z,8.81
2023-03-20T21:06:54.208Z,9.41
2023-03-20T21:09:33.465Z,9.86
2023-03-20T21:12:33.548Z,9.52
2023-03-20T21:15:20.951Z,8.71
2023-03-20T21:18:06.778Z,7.28
2023-03-20T21:20:52.700Z,6.78
2023-03-20T21:23:38.578Z,6.75
2023-03-20T21:26:24.477Z,7.11
2023-03-20T21:29:10.397Z,6.87
2023-03-20T21:31:56.291Z,6.53
2023-03-20T21:34:42.217Z,5.89
2023-03-20T21:38:33.377Z,5.84
2023-03-20T21:40:34.177Z,6.28
2023-03-20T21:43:20.136Z,7.40
2023-03-20T21:46:41.229Z,8.01
2023-03-20T21:59:11.091Z,5.88
2023-03-20T22:05:24.599Z,6.01
2023-03-20T22:08:28.040Z,5.99
2023-03-20T22:11:44.259Z,5.84
2023-03-20T22:17:46.987Z,5.81
2023-03-20T22:24:09.608Z,5.79
2023-03-20T22:45:03.801Z,6.03
2023-03-20T22:47:50.379Z,6.02
2023-03-20T22:50:36.553Z,5.41
2023-03-20T22:53:22.518Z,5.30
2023-03-20T22:56:08.272Z,5.60
2023-03-20T22:58:54.141Z,5.52
2023-03-20T23:01:40.111Z,4.81
2023-03-20T23:04:26.032Z,4.92
2023-03-20T23:07:12.866Z,4.63
2023-03-20T23:09:58.885Z,4.58
2023-03-20T23:12:44.637Z,4.72
2023-03-20T23:15:30.476Z,4.95
2023-03-20T23:18:16.346Z,5.31
2023-03-20T23:21:02.140Z,4.90
2023-03-20T23:23:48.070Z,4.34
2023-03-20T23:26:33.865Z,4.43
2023-03-20T23:29:19.778Z,4.80
2023-03-20T23:32:05.812Z,4.94
2023-03-20T23:34:51.777Z,5.28
2023-03-20T23:37:37.746Z,5.34
2023-03-20T23:40:23.540Z,5.22
2023-03-20T23:43:09.472Z,5.24
2023-03-20T23:45:55.545Z,4.86
2023-03-20T23:48:41.346Z,4.85
2023-03-20T23:51:27.203Z,5.03
2023-03-20T23:54:13.131Z,5.37
2023-03-20T23:56:58.955Z,5.42
2023-03-20T23:59:44.794Z,5.16
